vACC Молдова

Лого vACC Молдова
Руководитель региона

Diomed Tintiuc

Инструкторы региона
Diomed Tintiuc (Instructor)
Включает в себя

РПИ Кишинев

Диспетчеры региона

Диспетчер Рейтинг Допуски *
Vanya Bitca Student LUKK_GND

Аэропорты региона

ICAO Город Название Погода
LUKK Кишинев Кишинев LUKK 161930Z 23005KT CAVOK M04/M07 Q1020 NOSIG